Time;durP1;ratioP1;P1;durP2;ratioP2;P2;SDS_P1;SDS_P2;PMS_P1;PMS_P2;Temp;Humidity;BMP_temperature;BMP_pressure;BME280_temperature;BME280_humidity;BME280_pressure;Samples;Min_cycle;Max_cycle;Signal;HPM_P1;HPM_P2
2022/12/13 00:01:11;;;;;;;;;;;;;;;-4.90;71.64;97661.28;4840150;29;20015;-65
2022/12/13 00:03:36;;;;;;;;;;;;;;;-4.93;71.33;97663.03;4840678;29;19916;-66
2022/12/13 00:06:03;;;;;;;;;;;;;;;-4.94;71.23;97669.03;4840208;29;19916;-64
2022/12/13 00:08:28;;;;;;;;;;;;;;;-4.92;73.26;97664.72;4838931;29;20391;-66
2022/12/13 00:11:00;;;;;;;;;;;;;;;-4.97;72.25;97669.09;4837672;29;19920;-65
2022/12/13 00:13:26;;;;;;;;;;;;;;;-4.89;73.40;97659.56;4840868;29;19920;-65
2022/12/13 00:15:54;;;;;;;;;;;;;;;-4.85;73.06;97658.66;4838530;29;20292;-65
2022/12/13 00:18:20;;;;;;;;;;;;;;;-4.88;72.84;97651.88;4844405;29;19918;-65
2022/12/13 00:20:45;;;;;;;;;;;;;;;-4.85;73.21;97656.09;4840164;29;19916;-66
2022/12/13 00:23:10;;;;;;;;;;;;;;;-4.85;72.68;97656.97;4844074;29;19923;-65
2022/12/13 00:25:35;;;;;;;;;;;;;;;-4.81;73.46;97655.19;4843349;29;20018;-65
2022/12/13 00:28:00;;;;;;;;;;;;;;;-4.80;73.37;97662.00;4841023;29;20043;-66
2022/12/13 00:30:30;;;;;;;;;;;;;;;-4.80;73.03;97659.44;4843876;29;20003;-65
2022/12/13 00:32:55;;;;;;;;;;;;;;;-4.79;73.49;97653.44;4843642;29;19916;-65
2022/12/13 00:35:20;;;;;;;;;;;;;;;-4.79;72.68;97648.31;4842043;29;19939;-65
2022/12/13 00:37:46;;;;;;;;;;;;;;;-4.88;71.23;97645.94;4840250;29;19916;-67
2022/12/13 00:40:11;;;;;;;;;;;;;;;-5.03;69.42;97647.84;4842960;29;20053;-66
2022/12/13 00:42:36;;;;;;;;;;;;;;;-5.18;69.33;97645.53;4841148;29;19920;-67
2022/12/13 00:45:01;;;;;;;;;;;;;;;-5.15;72.46;97642.09;4843786;29;20399;-65
2022/12/13 00:47:27;;;;;;;;;;;;;;;-5.15;72.89;97645.47;4843672;29;20377;-66
2022/12/13 00:49:52;;;;;;;;;;;;;;;-5.12;71.58;97642.03;4842193;29;19999;-66
2022/12/13 00:52:17;;;;;;;;;;;;;;;-5.08;74.16;97641.97;4842032;29;20027;-65
2022/12/13 00:54:42;;;;;;;;;;;;;;;-5.07;73.74;97641.09;4842414;29;19916;-66
2022/12/13 00:57:08;;;;;;;;;;;;;;;-5.07;72.99;97635.13;4842780;29;19912;-66
2022/12/13 00:59:33;;;;;;;;;;;;;;;-5.07;72.97;97635.97;4842580;29;19916;-65
2022/12/13 01:01:58;;;;;;;;;;;;;;;-5.03;73.11;97631.66;4842219;29;19916;-65
2022/12/13 01:04:23;;;;;;;;;;;;;;;-5.01;73.20;97625.66;4841452;29;19916;-67
2022/12/13 01:06:50;;;;;;;;;;;;;;;-4.98;74.02;97629.03;4843017;29;20073;-65
2022/12/13 01:09:16;;;;;;;;;;;;;;;-4.98;72.98;97623.94;4842549;29;19924;-65
2022/12/13 01:11:42;;;;;;;;;;;;;;;-5.02;72.26;97623.97;4853586;29;19921;-65
2022/12/13 01:14:07;;;;;;;;;;;;;;;-5.05;72.09;97624.00;4842311;29;19927;-65
2022/12/13 01:16:32;;;;;;;;;;;;;;;-4.98;72.83;97621.38;4843462;29;19912;-67
2022/12/13 01:18:57;;;;;;;;;;;;;;;-5.02;74.06;97621.41;4842675;29;19991;-64
2022/12/13 01:21:23;;;;;;;;;;;;;;;-5.06;73.04;97612.09;4840989;29;19916;-66
2022/12/13 01:23:48;;;;;;;;;;;;;;;-5.06;73.03;97616.34;4841167;29;19916;-65
2022/12/13 01:26:14;;;;;;;;;;;;;;;-5.09;74.18;97617.25;4843207;29;19920;-65
2022/12/13 01:28:39;;;;;;;;;;;;;;;-5.04;73.92;97619.75;4841812;29;20373;-66
2022/12/13 01:31:08;;;;;;;;;;;;;;;-5.01;74.26;97619.69;4841597;29;19920;-65
2022/12/13 01:33:33;;;;;;;;;;;;;;;-5.04;72.88;97620.56;4854245;29;20302;-67
2022/12/13 01:35:59;;;;;;;;;;;;;;;-5.16;71.46;97619.91;4842986;29;20376;-65
2022/12/13 01:38:24;;;;;;;;;;;;;;;-5.18;71.75;97621.66;4838821;29;20377;-64
2022/12/13 01:40:56;;;;;;;;;;;;;;;-5.17;71.64;97619.06;4843043;29;19919;-65
2022/12/13 01:43:21;;;;;;;;;;;;;;;-5.18;73.82;97619.94;4838476;29;19924;-65
2022/12/13 01:45:47;;;;;;;;;;;;;;;-5.19;71.18;97614.88;4841333;29;19920;-66
2022/12/13 01:48:13;;;;;;;;;;;;;;;-5.30;69.95;97620.13;4841126;29;19924;-68
2022/12/13 01:50:40;;;;;;;;;;;;;;;-5.47;68.55;97612.72;4856774;29;19932;-67
2022/12/13 01:53:06;;;;;;;;;;;;;;;-5.61;68.11;97618.03;4840401;29;19924;-68
2022/12/13 01:55:31;;;;;;;;;;;;;;;-5.59;72.29;97621.41;4855253;29;20284;-66
2022/12/13 01:57:57;;;;;;;;;;;;;;;-5.57;72.85;97618.84;4839879;29;19972;-65
2022/12/13 02:00:23;;;;;;;;;;;;;;;-5.54;73.25;97617.09;4855651;29;20297;-65
2022/12/13 02:02:48;;;;;;;;;;;;;;;-5.49;71.90;97612.75;4839508;29;19920;-65
2022/12/13 02:05:20;;;;;;;;;;;;;;;-5.42;72.81;97612.66;4834101;29;19974;-67
2022/12/13 02:07:45;;;;;;;;;;;;;;;-5.44;72.02;97606.72;4837850;29;20401;-65
2022/12/13 02:10:10;;;;;;;;;;;;;;;-5.41;73.66;97609.22;4821693;29;19969;-65
2022/12/13 02:12:36;;;;;;;;;;;;;;;-5.46;71.49;97611.00;4836968;29;19920;-67
2022/12/13 02:15:02;;;;;;;;;;;;;;;-5.46;71.17;97616.13;4838503;29;19985;-66
2022/12/13 02:17:39;;;;;;;;;;;;;;;-5.42;71.97;97612.66;4840175;29;19928;-63
2022/12/13 02:20:23;;;;;;;;;;;;;;;-5.55;71.01;97614.53;4839672;29;20861;-65
2022/12/13 02:22:54;;;;;;;;;;;;;;;-5.55;70.62;97601.75;4840791;29;19920;-67
2022/12/13 02:25:26;;;;;;;;;;;;;;;-5.59;70.35;97612.88;4841414;29;19920;-65
2022/12/13 02:28:10;;;;;;;;;;;;;;;-5.66;70.19;97608.72;4855431;29;19924;-66
2022/12/13 02:30:39;;;;;;;;;;;;;;;-5.67;70.96;97607.88;4839974;29;19916;-66
2022/12/13 02:33:09;;;;;;;;;;;;;;;-5.74;71.61;97604.56;4853882;29;20285;-65
2022/12/13 02:35:54;;;;;;;;;;;;;;;-5.66;72.32;97596.78;4856198;29;19912;-66
2022/12/13 02:38:28;;;;;;;;;;;;;;;-5.59;72.29;97588.19;4821667;29;19973;-66
2022/12/13 02:40:59;;;;;;;;;;;;;;;-5.61;71.52;97591.63;4852528;29;19921;-66
2022/12/13 02:43:28;;;;;;;;;;;;;;;-5.67;70.92;97607.88;4853983;29;19916;-65
2022/12/13 02:45:54;;;;;;;;;;;;;;;-5.61;72.74;97597.59;4840260;29;19924;-65
2022/12/13 02:48:33;;;;;;;;;;;;;;;-5.66;71.69;97604.47;4854174;29;19922;-65
2022/12/13 02:50:58;;;;;;;;;;;;;;;-5.65;71.99;97606.13;4826851;29;20358;-65
2022/12/13 02:53:23;;;;;;;;;;;;;;;-5.60;72.39;97599.28;4850683;29;19916;-65
2022/12/13 02:55:49;;;;;;;;;;;;;;;-5.60;72.41;97596.72;4854720;29;19920;-65
2022/12/13 02:58:14;;;;;;;;;;;;;;;-5.53;72.96;97590.66;4839323;29;19924;-65
2022/12/13 03:00:39;;;;;;;;;;;;;;;-5.52;72.13;97589.78;4840338;29;19919;-65
2022/12/13 03:03:07;;;;;;;;;;;;;;;-5.54;72.54;97583.88;4838580;29;20014;-67
2022/12/13 03:09:06;;;;;;;;;;;;;;;-5.65;71.61;97583.16;4839524;29;20004;-64
2022/12/13 03:14:19;;;;;;;;;;;;;;;-5.68;71.27;97579.78;4851122;29;19923;-67
2022/12/13 03:16:44;;;;;;;;;;;;;;;-5.67;72.29;97574.69;4855568;29;19912;-65
